sensor_id;sensor_type;location;lat;lon;timestamp;pressure;altitude;pressure_sealevel;temperature
69420;BMP280;56612;52.030;113.524;2023-06-10T00:01:17;93179.56;;;16.94
69420;BMP280;56612;52.030;113.524;2023-06-10T00:04:21;93173.91;;;17.18
69420;BMP280;56612;52.030;113.524;2023-06-10T00:07:25;93172.47;;;17.23
69420;BMP280;56612;52.030;113.524;2023-06-10T00:10:28;93177.16;;;17.27
69420;BMP280;56612;52.030;113.524;2023-06-10T00:13:32;93178.97;;;17.45
69420;BMP280;56612;52.030;113.524;2023-06-10T00:16:35;93169.31;;;17.60
69420;BMP280;56612;52.030;113.524;2023-06-10T00:19:39;93180.69;;;17.68
69420;BMP280;56612;52.030;113.524;2023-06-10T00:22:44;93173.06;;;17.81
69420;BMP280;56612;52.030;113.524;2023-06-10T00:25:49;93167.44;;;17.95
69420;BMP280;56612;52.030;113.524;2023-06-10T00:28:52;93176.78;;;18.04
69420;BMP280;56612;52.030;113.524;2023-06-10T00:31:56;93165.09;;;18.16
69420;BMP280;56612;52.030;113.524;2023-06-10T00:35:02;93172.22;;;18.36
69420;BMP280;56612;52.030;113.524;2023-06-10T00:38:07;93174.09;;;18.46
69420;BMP280;56612;52.030;113.524;2023-06-10T00:41:10;93175.81;;;18.63
69420;BMP280;56612;52.030;113.524;2023-06-10T00:44:15;93170.75;;;18.82
69420;BMP280;56612;52.030;113.524;2023-06-10T00:47:19;93165.63;;;19.01
69420;BMP280;56612;52.030;113.524;2023-06-10T00:50:23;93161.94;;;18.81
69420;BMP280;56612;52.030;113.524;2023-06-10T00:53:27;93173.69;;;19.05
69420;BMP280;56612;52.030;113.524;2023-06-10T00:56:32;93164.97;;;19.33
69420;BMP280;56612;52.030;113.524;2023-06-10T00:59:39;93169.19;;;19.59
69420;BMP280;56612;52.030;113.524;2023-06-10T01:02:43;93168.81;;;19.75
69420;BMP280;56612;52.030;113.524;2023-06-10T01:05:53;93166.34;;;19.94
69420;BMP280;56612;52.030;113.524;2023-06-10T01:09:33;93166.88;;;20.29
69420;BMP280;56612;52.030;113.524;2023-06-10T01:12:46;93157.66;;;20.18
69420;BMP280;56612;52.030;113.524;2023-06-10T01:15:56;93149.50;;;20.45
69420;BMP280;56612;52.030;113.524;2023-06-10T01:18:59;93156.84;;;20.75
69420;BMP280;56612;52.030;113.524;2023-06-10T01:22:03;93157.16;;;20.90
69420;BMP280;56612;52.030;113.524;2023-06-10T01:25:09;93160.72;;;21.07
69420;BMP280;56612;52.030;113.524;2023-06-10T01:28:34;93155.56;;;21.45
69420;BMP280;56612;52.030;113.524;2023-06-10T01:34:49;93153.88;;;21.33
69420;BMP280;56612;52.030;113.524;2023-06-10T01:37:54;93151.69;;;21.38
69420;BMP280;56612;52.030;113.524;2023-06-10T01:41:00;93137.91;;;21.67
69420;BMP280;56612;52.030;113.524;2023-06-10T01:44:05;93139.09;;;21.94
69420;BMP280;56612;52.030;113.524;2023-06-10T01:47:09;93144.06;;;22.09
69420;BMP280;56612;52.030;113.524;2023-06-10T01:50:13;93140.63;;;21.67
69420;BMP280;56612;52.030;113.524;2023-06-10T01:53:17;93149.63;;;21.61
69420;BMP280;56612;52.030;113.524;2023-06-10T01:56:21;93146.53;;;22.37
69420;BMP280;56612;52.030;113.524;2023-06-10T01:59:24;93140.03;;;22.68
69420;BMP280;56612;52.030;113.524;2023-06-10T02:02:28;93144.38;;;22.79
69420;BMP280;56612;52.030;113.524;2023-06-10T02:05:33;93142.03;;;23.07
69420;BMP280;56612;52.030;113.524;2023-06-10T02:08:38;93134.47;;;23.45
69420;BMP280;56612;52.030;113.524;2023-06-10T02:11:41;93140.75;;;24.27
69420;BMP280;56612;52.030;113.524;2023-06-10T02:14:45;93136.53;;;24.93
69420;BMP280;56612;52.030;113.524;2023-06-10T02:17:49;93137.44;;;25.77
69420;BMP280;56612;52.030;113.524;2023-06-10T02:20:54;93131.44;;;26.02
69420;BMP280;56612;52.030;113.524;2023-06-10T02:23:58;93130.06;;;25.29
69420;BMP280;56612;52.030;113.524;2023-06-10T02:27:02;93128.53;;;25.91
69420;BMP280;56612;52.030;113.524;2023-06-10T22:33:45;93234.69;;;14.99
69420;BMP280;56612;52.030;113.524;2023-06-10T22:36:51;93237.38;;;15.01
69420;BMP280;56612;52.030;113.524;2023-06-10T22:39:54;93241.41;;;14.96
69420;BMP280;56612;52.030;113.524;2023-06-10T22:42:58;93246.78;;;15.08
69420;BMP280;56612;52.030;113.524;2023-06-10T22:46:02;93248.03;;;15.42
69420;BMP280;56612;52.030;113.524;2023-06-10T22:49:06;93240.69;;;15.26
69420;BMP280;56612;52.030;113.524;2023-06-10T22:52:10;93248.16;;;14.93
69420;BMP280;56612;52.030;113.524;2023-06-10T22:55:14;93250.81;;;15.03
69420;BMP280;56612;52.030;113.524;2023-06-10T22:58:18;93254.13;;;15.30
69420;BMP280;56612;52.030;113.524;2023-06-10T23:01:22;93267.53;;;15.53
69420;BMP280;56612;52.030;113.524;2023-06-10T23:04:26;93258.06;;;15.60
69420;BMP280;56612;52.030;113.524;2023-06-10T23:07:29;93251.94;;;15.69
69420;BMP280;56612;52.030;113.524;2023-06-10T23:10:33;93268.75;;;15.80
69420;BMP280;56612;52.030;113.524;2023-06-10T23:13:36;93271.41;;;15.94
69420;BMP280;56612;52.030;113.524;2023-06-10T23:16:41;93257.88;;;15.98
69420;BMP280;56612;52.030;113.524;2023-06-10T23:19:49;93258.47;;;16.13
69420;BMP280;56612;52.030;113.524;2023-06-10T23:22:54;93250.94;;;16.32
69420;BMP280;56612;52.030;113.524;2023-06-10T23:25:57;93254.19;;;16.48
69420;BMP280;56612;52.030;113.524;2023-06-10T23:29:01;93252.06;;;16.61
69420;BMP280;56612;52.030;113.524;2023-06-10T23:32:04;93256.66;;;16.75
69420;BMP280;56612;52.030;113.524;2023-06-10T23:35:08;93261.28;;;16.88
69420;BMP280;56612;52.030;113.524;2023-06-10T23:38:13;93260.56;;;16.90
69420;BMP280;56612;52.030;113.524;2023-06-10T23:41:17;93266.16;;;16.70
69420;BMP280;56612;52.030;113.524;2023-06-10T23:44:20;93263.41;;;16.76
69420;BMP280;56612;52.030;113.524;2023-06-10T23:47:24;93262.47;;;17.04
69420;BMP280;56612;52.030;113.524;2023-06-10T23:50:28;93258.91;;;17.21
69420;BMP280;56612;52.030;113.524;2023-06-10T23:53:33;93267.75;;;17.16
69420;BMP280;56612;52.030;113.524;2023-06-10T23:56:36;93268.25;;;17.33
69420;BMP280;56612;52.030;113.524;2023-06-10T23:59:39;93263.44;;;17.41
